Pagrindinis puslapis
METAR-TAF:

METAR-TAF

Oro uostai :

Balmaceda, Čilė

platuma: 45-55S, ilguma: 071-41W, Aukštis: 520 m

Dabartinis oras

Ataskaita buvo paskelbta 47 minutes, ne 17:00 UTC
Vėjas 20 kt iš Vakarų/Šiaurės Vakarų
Temperatūra 14°C
Drėgmė 38%
Slėgis 1015 hPa
Matomumas 10 km arba daugiau
nėra debesų žemiau 1500 m ir nėra kamuolinių lietaus debesų

METAR: SCBA 271700Z 30020KT CAVOK 14/00 Q1015

Laikas: 14:47 (17:47 UTC)

Prognozė

Ataskaita buvo paskelbta 1 valandą ir 40 minutes, ne 16:07 UTC
Prognozė galioja nuo 27 metu 18 UTC su 28 metu 18 UTC
Vėjas 20 kt iš Vakarų/Šiaurės Vakarų
Matomumas 10 km arba daugiau
nėra debesų žemiau 1500 m ir nėra kamuolinių lietaus debesų
Tapsmas
nuo 28 metu 06 UTC su 28 metu 08 UTC
Su prošvaistėmis ne aukštis 2500 ft
Laikinai
nuo 28 metu 14 UTC su 28 metu 18 UTC
Vėjas 20 kt iš Šiaurės Vakarų su gūsio iki 35 kt
Matomumas: 8000 m
lietus

TAF: SCBA 271607Z 2718/2818 30020KT CAVOK TX16/2719Z TN01/2810Z BECMG 2806/2808 BKN025 TEMPO 2814/2818 31020G35KT 8000 -SHRA

Orai ataskaitas ir orų prognozės (METAR, TAF).

turimą stotys yra geltonos ir raudonos taškus žemėlapyje.

Perkelti pele per norėdami pamatyti stoties vardą.

Tada spustelėkite, norėdami matyti oro stebėjimo ir prognozės.

Norėdami pakeisti žemėlapį: spustelėkite ant žalios mygtukų su juodo kryžiaus žemyn,; žalią mygtuką su brūkšneliu, jei norite nutolinti; arba žalių rodyklių gretimoms žemėlapius.


METAR-TAF: